sensor_id;sensor_type;location;lat;lon;timestamp;P1;durP1;ratioP1;P2;durP2;ratioP2
84729;SDS011;74950;56.832;41.398;2024-02-04T00:01:52;8.90;;;3.38;;
84729;SDS011;74950;56.832;41.398;2024-02-04T00:04:18;5.65;;;3.85;;
84729;SDS011;74950;56.832;41.398;2024-02-04T00:06:45;8.15;;;3.80;;
84729;SDS011;74950;56.832;41.398;2024-02-04T00:09:11;11.65;;;4.93;;
84729;SDS011;74950;56.832;41.398;2024-02-04T00:11:38;14.45;;;3.15;;
84729;SDS011;74950;56.832;41.398;2024-02-04T00:14:04;13.63;;;3.28;;
84729;SDS011;74950;56.832;41.398;2024-02-04T00:16:30;7.32;;;3.55;;
84729;SDS011;74950;56.832;41.398;2024-02-04T00:18:56;3.22;;;2.63;;
84729;SDS011;74950;56.832;41.398;2024-02-04T00:21:22;15.18;;;4.57;;
84729;SDS011;74950;56.832;41.398;2024-02-04T00:23:49;4.10;;;1.98;;
84729;SDS011;74950;56.832;41.398;2024-02-04T00:26:15;10.88;;;2.85;;
84729;SDS011;74950;56.832;41.398;2024-02-04T00:28:41;6.10;;;4.30;;
84729;SDS011;74950;56.832;41.398;2024-02-04T00:31:09;10.70;;;4.18;;
84729;SDS011;74950;56.832;41.398;2024-02-04T00:33:35;6.30;;;3.72;;
84729;SDS011;74950;56.832;41.398;2024-02-04T00:36:02;5.53;;;2.60;;
84729;SDS011;74950;56.832;41.398;2024-02-04T00:38:29;2.55;;;1.75;;
84729;SDS011;74950;56.832;41.398;2024-02-04T00:40:55;8.43;;;3.38;;
84729;SDS011;74950;56.832;41.398;2024-02-04T00:43:22;15.43;;;5.00;;
84729;SDS011;74950;56.832;41.398;2024-02-04T00:45:49;6.15;;;3.50;;
84729;SDS011;74950;56.832;41.398;2024-02-04T00:48:15;9.20;;;3.80;;
84729;SDS011;74950;56.832;41.398;2024-02-04T00:50:42;7.43;;;3.25;;
84729;SDS011;74950;56.832;41.398;2024-02-04T00:53:08;13.65;;;4.95;;
84729;SDS011;74950;56.832;41.398;2024-02-04T00:55:34;10.15;;;3.22;;
84729;SDS011;74950;56.832;41.398;2024-02-04T00:58:00;6.90;;;3.72;;
84729;SDS011;74950;56.832;41.398;2024-02-04T01:00:28;10.73;;;4.05;;
84729;SDS011;74950;56.832;41.398;2024-02-04T01:02:54;4.50;;;2.90;;
84729;SDS011;74950;56.832;41.398;2024-02-04T01:05:21;10.55;;;3.83;;
84729;SDS011;74950;56.832;41.398;2024-02-04T01:07:47;12.43;;;4.32;;
84729;SDS011;74950;56.832;41.398;2024-02-04T01:10:13;4.97;;;2.97;;
84729;SDS011;74950;56.832;41.398;2024-02-04T01:12:40;8.35;;;3.97;;
84729;SDS011;74950;56.832;41.398;2024-02-04T01:15:06;3.75;;;3.15;;
84729;SDS011;74950;56.832;41.398;2024-02-04T01:17:51;3.83;;;2.25;;
84729;SDS011;74950;56.832;41.398;2024-02-04T01:20:18;3.92;;;1.98;;
84729;SDS011;74950;56.832;41.398;2024-02-04T01:22:44;9.07;;;4.20;;
84729;SDS011;74950;56.832;41.398;2024-02-04T01:25:11;9.15;;;3.47;;
84729;SDS011;74950;56.832;41.398;2024-02-04T01:27:37;4.20;;;2.97;;
84729;SDS011;74950;56.832;41.398;2024-02-04T01:30:03;6.28;;;3.47;;
84729;SDS011;74950;56.832;41.398;2024-02-04T01:32:30;11.82;;;2.95;;
84729;SDS011;74950;56.832;41.398;2024-02-04T01:34:56;8.35;;;2.50;;
84729;SDS011;74950;56.832;41.398;2024-02-04T01:37:23;7.53;;;2.53;;
84729;SDS011;74950;56.832;41.398;2024-02-04T01:39:49;7.88;;;3.75;;
84729;SDS011;74950;56.832;41.398;2024-02-04T01:42:15;4.88;;;2.00;;
84729;SDS011;74950;56.832;41.398;2024-02-04T01:44:41;12.70;;;4.35;;
84729;SDS011;74950;56.832;41.398;2024-02-04T01:47:09;11.85;;;3.67;;
84729;SDS011;74950;56.832;41.398;2024-02-04T01:49:35;15.88;;;4.65;;
84729;SDS011;74950;56.832;41.398;2024-02-04T01:52:01;11.23;;;3.35;;
84729;SDS011;74950;56.832;41.398;2024-02-04T01:54:28;7.97;;;3.90;;
84729;SDS011;74950;56.832;41.398;2024-02-04T01:56:56;5.78;;;3.08;;
84729;SDS011;74950;56.832;41.398;2024-02-04T01:59:24;4.70;;;2.58;;
84729;SDS011;74950;56.832;41.398;2024-02-04T02:01:57;5.90;;;3.15;;
84729;SDS011;74950;56.832;41.398;2024-02-04T02:06:55;6.07;;;2.72;;
84729;SDS011;74950;56.832;41.398;2024-02-04T02:09:21;2.15;;;1.30;;
84729;SDS011;74950;56.832;41.398;2024-02-04T02:11:51;7.90;;;4.45;;
84729;SDS011;74950;56.832;41.398;2024-02-04T02:14:23;7.10;;;3.97;;
84729;SDS011;74950;56.832;41.398;2024-02-04T02:22:00;6.97;;;3.03;;
84729;SDS011;74950;56.832;41.398;2024-02-04T02:26:58;9.38;;;2.97;;
84729;SDS011;74950;56.832;41.398;2024-02-04T02:29:24;3.88;;;1.70;;
84729;SDS011;74950;56.832;41.398;2024-02-04T02:31:51;8.45;;;3.58;;
84729;SDS011;74950;56.832;41.398;2024-02-04T02:34:17;4.03;;;2.22;;
84729;SDS011;74950;56.832;41.398;2024-02-04T02:36:44;5.47;;;1.90;;
84729;SDS011;74950;56.832;41.398;2024-02-04T02:39:18;3.67;;;2.15;;
84729;SDS011;74950;56.832;41.398;2024-02-04T02:41:50;5.03;;;1.83;;
84729;SDS011;74950;56.832;41.398;2024-02-04T02:44:21;3.80;;;1.33;;
84729;SDS011;74950;56.832;41.398;2024-02-04T02:46:50;7.28;;;1.90;;
84729;SDS011;74950;56.832;41.398;2024-02-04T02:49:17;10.25;;;2.95;;
84729;SDS011;74950;56.832;41.398;2024-02-04T02:51:43;7.20;;;2.95;;
84729;SDS011;74950;56.832;41.398;2024-02-04T02:54:09;6.03;;;2.50;;
84729;SDS011;74950;56.832;41.398;2024-02-04T02:56:37;8.63;;;3.80;;
84729;SDS011;74950;56.832;41.398;2024-02-04T02:59:22;7.38;;;2.92;;
84729;SDS011;74950;56.832;41.398;2024-02-04T03:01:48;5.47;;;2.85;;
84729;SDS011;74950;56.832;41.398;2024-02-04T03:04:14;4.13;;;2.05;;
84729;SDS011;74950;56.832;41.398;2024-02-04T03:06:40;2.92;;;1.98;;
84729;SDS011;74950;56.832;41.398;2024-02-04T03:09:06;7.28;;;3.35;;
84729;SDS011;74950;56.832;41.398;2024-02-04T03:11:32;3.83;;;1.65;;
84729;SDS011;74950;56.832;41.398;2024-02-04T03:13:59;8.07;;;3.65;;
84729;SDS011;74950;56.832;41.398;2024-02-04T03:16:25;4.97;;;1.15;;
84729;SDS011;74950;56.832;41.398;2024-02-04T03:18:52;7.20;;;2.90;;
84729;SDS011;74950;56.832;41.398;2024-02-04T03:21:19;3.88;;;2.22;;
84729;SDS011;74950;56.832;41.398;2024-02-04T03:23:45;4.82;;;2.45;;
84729;SDS011;74950;56.832;41.398;2024-02-04T03:26:11;5.68;;;2.28;;
84729;SDS011;74950;56.832;41.398;2024-02-04T03:28:43;12.32;;;2.95;;
84729;SDS011;74950;56.832;41.398;2024-02-04T03:31:09;5.28;;;2.88;;
84729;SDS011;74950;56.832;41.398;2024-02-04T03:33:35;8.98;;;3.72;;
84729;SDS011;74950;56.832;41.398;2024-02-04T03:36:01;11.13;;;2.85;;
84729;SDS011;74950;56.832;41.398;2024-02-04T03:38:28;8.15;;;2.80;;
84729;SDS011;74950;56.832;41.398;2024-02-04T03:40:54;8.30;;;2.70;;
84729;SDS011;74950;56.832;41.398;2024-02-04T03:43:21;6.13;;;2.28;;
84729;SDS011;74950;56.832;41.398;2024-02-04T03:45:47;9.68;;;3.25;;
84729;SDS011;74950;56.832;41.398;2024-02-04T03:48:13;4.88;;;2.28;;
84729;SDS011;74950;56.832;41.398;2024-02-04T03:50:40;4.38;;;2.80;;
84729;SDS011;74950;56.832;41.398;2024-02-04T03:53:24;7.70;;;2.95;;
84729;SDS011;74950;56.832;41.398;2024-02-04T03:55:51;6.43;;;2.85;;
84729;SDS011;74950;56.832;41.398;2024-02-04T03:58:19;9.60;;;2.50;;
84729;SDS011;74950;56.832;41.398;2024-02-04T04:00:45;6.30;;;2.40;;
84729;SDS011;74950;56.832;41.398;2024-02-04T04:03:12;7.20;;;2.00;;
84729;SDS011;74950;56.832;41.398;2024-02-04T04:05:38;8.63;;;3.55;;
84729;SDS011;74950;56.832;41.398;2024-02-04T04:08:04;6.63;;;2.92;;
84729;SDS011;74950;56.832;41.398;2024-02-04T04:10:30;7.60;;;2.30;;
84729;SDS011;74950;56.832;41.398;2024-02-04T04:12:56;8.50;;;3.05;;
84729;SDS011;74950;56.832;41.398;2024-02-04T04:15:22;4.80;;;1.65;;
84729;SDS011;74950;56.832;41.398;2024-02-04T04:17:49;4.13;;;1.77;;
84729;SDS011;74950;56.832;41.398;2024-02-04T04:20:15;10.55;;;3.75;;
84729;SDS011;74950;56.832;41.398;2024-02-04T04:22:41;3.65;;;1.88;;
84729;SDS011;74950;56.832;41.398;2024-02-04T04:25:08;7.80;;;2.85;;
84729;SDS011;74950;56.832;41.398;2024-02-04T04:27:34;5.03;;;2.97;;
84729;SDS011;74950;56.832;41.398;2024-02-04T04:30:01;2.97;;;1.83;;
84729;SDS011;74950;56.832;41.398;2024-02-04T04:32:29;6.15;;;2.90;;
84729;SDS011;74950;56.832;41.398;2024-02-04T04:34:56;9.25;;;2.85;;
84729;SDS011;74950;56.832;41.398;2024-02-04T04:37:22;9.50;;;3.38;;
84729;SDS011;74950;56.832;41.398;2024-02-04T04:39:48;3.75;;;2.65;;
84729;SDS011;74950;56.832;41.398;2024-02-04T04:42:15;11.00;;;2.47;;
84729;SDS011;74950;56.832;41.398;2024-02-04T04:44:41;4.68;;;2.65;;
84729;SDS011;74950;56.832;41.398;2024-02-04T04:47:07;11.23;;;2.67;;
84729;SDS011;74950;56.832;41.398;2024-02-04T04:49:52;6.72;;;2.42;;
84729;SDS011;74950;56.832;41.398;2024-02-04T04:52:18;6.07;;;2.28;;
84729;SDS011;74950;56.832;41.398;2024-02-04T04:54:44;7.63;;;3.00;;
84729;SDS011;74950;56.832;41.398;2024-02-04T04:57:10;4.95;;;2.42;;
84729;SDS011;74950;56.832;41.398;2024-02-04T04:59:37;7.57;;;2.75;;
84729;SDS011;74950;56.832;41.398;2024-02-04T05:02:03;4.18;;;2.63;;
84729;SDS011;74950;56.832;41.398;2024-02-04T05:04:30;10.98;;;3.05;;
84729;SDS011;74950;56.832;41.398;2024-02-04T05:06:56;6.97;;;2.70;;
84729;SDS011;74950;56.832;41.398;2024-02-04T05:09:22;1.63;;;1.30;;
84729;SDS011;74950;56.832;41.398;2024-02-04T05:11:48;6.20;;;3.33;;
84729;SDS011;74950;56.832;41.398;2024-02-04T05:14:15;5.07;;;2.42;;
84729;SDS011;74950;56.832;41.398;2024-02-04T05:16:59;4.80;;;2.42;;
84729;SDS011;74950;56.832;41.398;2024-02-04T05:19:26;5.75;;;2.42;;
84729;SDS011;74950;56.832;41.398;2024-02-04T05:21:52;3.60;;;1.48;;
84729;SDS011;74950;56.832;41.398;2024-02-04T05:24:18;6.88;;;2.63;;
84729;SDS011;74950;56.832;41.398;2024-02-04T05:26:44;3.90;;;1.48;;
84729;SDS011;74950;56.832;41.398;2024-02-04T05:29:10;6.20;;;2.63;;
84729;SDS011;74950;56.832;41.398;2024-02-04T05:31:41;9.13;;;3.30;;
84729;SDS011;74950;56.832;41.398;2024-02-04T05:34:12;5.35;;;2.05;;
84729;SDS011;74950;56.832;41.398;2024-02-04T05:36:38;2.42;;;1.88;;
84729;SDS011;74950;56.832;41.398;2024-02-04T05:39:11;5.13;;;2.58;;
84729;SDS011;74950;56.832;41.398;2024-02-04T05:41:38;9.70;;;3.65;;
84729;SDS011;74950;56.832;41.398;2024-02-04T05:44:05;6.55;;;2.97;;
84729;SDS011;74950;56.832;41.398;2024-02-04T05:46:32;5.05;;;3.03;;
84729;SDS011;74950;56.832;41.398;2024-02-04T05:48:58;5.68;;;2.58;;
84729;SDS011;74950;56.832;41.398;2024-02-04T05:51:24;4.70;;;1.88;;
84729;SDS011;74950;56.832;41.398;2024-02-04T05:53:50;5.20;;;2.35;;
84729;SDS011;74950;56.832;41.398;2024-02-04T05:56:17;6.03;;;2.58;;
84729;SDS011;74950;56.832;41.398;2024-02-04T05:58:43;3.65;;;1.70;;
84729;SDS011;74950;56.832;41.398;2024-02-04T06:01:09;4.45;;;2.60;;
84729;SDS011;74950;56.832;41.398;2024-02-04T06:03:35;6.50;;;2.92;;
84729;SDS011;74950;56.832;41.398;2024-02-04T06:06:01;4.63;;;2.35;;
84729;SDS011;74950;56.832;41.398;2024-02-04T06:08:28;7.22;;;3.05;;
84729;SDS011;74950;56.832;41.398;2024-02-04T06:10:54;4.53;;;2.08;;
84729;SDS011;74950;56.832;41.398;2024-02-04T06:13:20;5.20;;;1.95;;
84729;SDS011;74950;56.832;41.398;2024-02-04T06:15:46;4.85;;;2.42;;
84729;SDS011;74950;56.832;41.398;2024-02-04T06:18:12;6.75;;;2.97;;
84729;SDS011;74950;56.832;41.398;2024-02-04T06:20:38;5.07;;;2.58;;
84729;SDS011;74950;56.832;41.398;2024-02-04T06:23:05;4.45;;;2.20;;
84729;SDS011;74950;56.832;41.398;2024-02-04T06:25:31;6.10;;;2.03;;
84729;SDS011;74950;56.832;41.398;2024-02-04T06:27:57;2.85;;;1.58;;
84729;SDS011;74950;56.832;41.398;2024-02-04T06:30:23;6.15;;;3.20;;
84729;SDS011;74950;56.832;41.398;2024-02-04T06:32:50;2.60;;;1.60;;
84729;SDS011;74950;56.832;41.398;2024-02-04T06:35:16;7.15;;;2.83;;
84729;SDS011;74950;56.832;41.398;2024-02-04T06:37:42;7.68;;;2.22;;
84729;SDS011;74950;56.832;41.398;2024-02-04T06:40:27;8.18;;;3.45;;
84729;SDS011;74950;56.832;41.398;2024-02-04T06:42:53;5.88;;;2.92;;
84729;SDS011;74950;56.832;41.398;2024-02-04T06:45:19;2.55;;;1.23;;
84729;SDS011;74950;56.832;41.398;2024-02-04T06:47:46;8.75;;;3.40;;
84729;SDS011;74950;56.832;41.398;2024-02-04T06:50:12;9.70;;;2.17;;
84729;SDS011;74950;56.832;41.398;2024-02-04T06:52:40;5.78;;;1.98;;
84729;SDS011;74950;56.832;41.398;2024-02-04T06:55:08;2.08;;;1.10;;
84729;SDS011;74950;56.832;41.398;2024-02-04T06:57:35;7.80;;;3.33;;
84729;SDS011;74950;56.832;41.398;2024-02-04T07:00:01;8.68;;;2.97;;
84729;SDS011;74950;56.832;41.398;2024-02-04T07:02:31;6.38;;;1.95;;
84729;SDS011;74950;56.832;41.398;2024-02-04T07:04:57;8.60;;;2.75;;
84729;SDS011;74950;56.832;41.398;2024-02-04T07:07:24;4.80;;;2.40;;
84729;SDS011;74950;56.832;41.398;2024-02-04T07:09:50;5.05;;;1.98;;
84729;SDS011;74950;56.832;41.398;2024-02-04T07:12:16;6.78;;;1.40;;
84729;SDS011;74950;56.832;41.398;2024-02-04T07:14:42;3.97;;;1.92;;
84729;SDS011;74950;56.832;41.398;2024-02-04T07:17:08;3.67;;;2.08;;
84729;SDS011;74950;56.832;41.398;2024-02-04T07:19:34;9.20;;;3.17;;
84729;SDS011;74950;56.832;41.398;2024-02-04T07:22:01;5.90;;;2.63;;
84729;SDS011;74950;56.832;41.398;2024-02-04T07:24:27;6.45;;;2.70;;
84729;SDS011;74950;56.832;41.398;2024-02-04T07:26:53;3.15;;;1.23;;
84729;SDS011;74950;56.832;41.398;2024-02-04T07:29:20;5.55;;;1.83;;
84729;SDS011;74950;56.832;41.398;2024-02-04T07:31:46;3.65;;;2.40;;
84729;SDS011;74950;56.832;41.398;2024-02-04T07:34:12;6.07;;;2.47;;
84729;SDS011;74950;56.832;41.398;2024-02-04T07:36:38;4.43;;;1.65;;
84729;SDS011;74950;56.832;41.398;2024-02-04T07:39:05;4.60;;;2.40;;
84729;SDS011;74950;56.832;41.398;2024-02-04T07:41:31;3.42;;;2.25;;
84729;SDS011;74950;56.832;41.398;2024-02-04T07:43:58;3.83;;;2.28;;
84729;SDS011;74950;56.832;41.398;2024-02-04T07:46:24;4.75;;;2.17;;
84729;SDS011;74950;56.832;41.398;2024-02-04T07:48:50;6.18;;;2.55;;
84729;SDS011;74950;56.832;41.398;2024-02-04T07:51:16;6.90;;;2.63;;
84729;SDS011;74950;56.832;41.398;2024-02-04T07:53:43;2.58;;;1.70;;
84729;SDS011;74950;56.832;41.398;2024-02-04T07:56:09;6.82;;;2.08;;
84729;SDS011;74950;56.832;41.398;2024-02-04T07:58:36;4.18;;;1.88;;
84729;SDS011;74950;56.832;41.398;2024-02-04T08:01:02;8.13;;;2.88;;
84729;SDS011;74950;56.832;41.398;2024-02-04T08:03:28;3.75;;;1.65;;
84729;SDS011;74950;56.832;41.398;2024-02-04T08:06:13;4.63;;;2.35;;
84729;SDS011;74950;56.832;41.398;2024-02-04T08:08:39;2.72;;;1.77;;
84729;SDS011;74950;56.832;41.398;2024-02-04T08:11:07;3.88;;;2.20;;
84729;SDS011;74950;56.832;41.398;2024-02-04T08:13:34;3.97;;;1.83;;
84729;SDS011;74950;56.832;41.398;2024-02-04T08:16:00;5.07;;;3.03;;
84729;SDS011;74950;56.832;41.398;2024-02-04T08:18:26;3.95;;;1.85;;
84729;SDS011;74950;56.832;41.398;2024-02-04T08:20:52;15.05;;;1.70;;
84729;SDS011;74950;56.832;41.398;2024-02-04T08:23:18;2.13;;;1.58;;
84729;SDS011;74950;56.832;41.398;2024-02-04T08:25:45;6.88;;;2.50;;
84729;SDS011;74950;56.832;41.398;2024-02-04T08:28:11;2.63;;;1.50;;
84729;SDS011;74950;56.832;41.398;2024-02-04T08:30:37;3.42;;;1.95;;
84729;SDS011;74950;56.832;41.398;2024-02-04T08:33:03;6.28;;;1.73;;
84729;SDS011;74950;56.832;41.398;2024-02-04T08:35:30;2.50;;;1.27;;
84729;SDS011;74950;56.832;41.398;2024-02-04T08:37:56;4.35;;;2.10;;
84729;SDS011;74950;56.832;41.398;2024-02-04T08:40:22;9.10;;;2.47;;
84729;SDS011;74950;56.832;41.398;2024-02-04T08:42:48;3.17;;;1.77;;
84729;SDS011;74950;56.832;41.398;2024-02-04T08:45:14;2.38;;;1.90;;
84729;SDS011;74950;56.832;41.398;2024-02-04T08:47:41;4.32;;;1.98;;
84729;SDS011;74950;56.832;41.398;2024-02-04T08:50:07;5.28;;;2.63;;
84729;SDS011;74950;56.832;41.398;2024-02-04T08:52:52;4.55;;;2.83;;
84729;SDS011;74950;56.832;41.398;2024-02-04T08:55:19;4.10;;;2.13;;
84729;SDS011;74950;56.832;41.398;2024-02-04T08:57:45;4.03;;;1.85;;
84729;SDS011;74950;56.832;41.398;2024-02-04T09:00:14;4.10;;;1.88;;
84729;SDS011;74950;56.832;41.398;2024-02-04T09:02:41;5.35;;;2.78;;
84729;SDS011;74950;56.832;41.398;2024-02-04T09:05:07;1.85;;;1.70;;
84729;SDS011;74950;56.832;41.398;2024-02-04T09:07:34;4.22;;;1.60;;
84729;SDS011;74950;56.832;41.398;2024-02-04T09:10:19;5.28;;;2.35;;
84729;SDS011;74950;56.832;41.398;2024-02-04T09:12:45;4.25;;;2.17;;
84729;SDS011;74950;56.832;41.398;2024-02-04T09:15:11;7.20;;;3.00;;
84729;SDS011;74950;56.832;41.398;2024-02-04T09:17:38;2.70;;;1.40;;
84729;SDS011;74950;56.832;41.398;2024-02-04T09:20:04;3.28;;;1.75;;
84729;SDS011;74950;56.832;41.398;2024-02-04T09:22:31;7.20;;;2.08;;
84729;SDS011;74950;56.832;41.398;2024-02-04T09:24:57;5.05;;;2.42;;
84729;SDS011;74950;56.832;41.398;2024-02-04T09:27:24;2.40;;;1.60;;
84729;SDS011;74950;56.832;41.398;2024-02-04T09:29:51;5.40;;;2.80;;
84729;SDS011;74950;56.832;41.398;2024-02-04T09:32:17;7.25;;;2.92;;
84729;SDS011;74950;56.832;41.398;2024-02-04T09:34:43;3.83;;;1.23;;
84729;SDS011;74950;56.832;41.398;2024-02-04T09:37:29;3.70;;;1.95;;
84729;SDS011;74950;56.832;41.398;2024-02-04T09:39:56;3.38;;;1.75;;
84729;SDS011;74950;56.832;41.398;2024-02-04T09:42:22;3.88;;;1.60;;
84729;SDS011;74950;56.832;41.398;2024-02-04T09:45:07;3.60;;;2.17;;
84729;SDS011;74950;56.832;41.398;2024-02-04T09:47:35;5.65;;;1.67;;
84729;SDS011;74950;56.832;41.398;2024-02-04T09:50:02;6.28;;;1.98;;
84729;SDS011;74950;56.832;41.398;2024-02-04T09:52:30;3.70;;;1.70;;
84729;SDS011;74950;56.832;41.398;2024-02-04T09:54:59;5.80;;;2.50;;
84729;SDS011;74950;56.832;41.398;2024-02-04T09:57:30;4.53;;;2.42;;
84729;SDS011;74950;56.832;41.398;2024-02-04T09:59:56;6.50;;;1.20;;
84729;SDS011;74950;56.832;41.398;2024-02-04T10:02:22;1.58;;;0.98;;
84729;SDS011;74950;56.832;41.398;2024-02-04T10:04:49;5.05;;;2.05;;
84729;SDS011;74950;56.832;41.398;2024-02-04T10:07:16;3.03;;;1.73;;
84729;SDS011;74950;56.832;41.398;2024-02-04T10:09:44;2.53;;;1.27;;
84729;SDS011;74950;56.832;41.398;2024-02-04T10:12:11;7.28;;;3.58;;
84729;SDS011;74950;56.832;41.398;2024-02-04T10:14:37;5.07;;;2.40;;
84729;SDS011;74950;56.832;41.398;2024-02-04T10:17:04;3.28;;;2.25;;
84729;SDS011;74950;56.832;41.398;2024-02-04T10:19:30;4.57;;;2.17;;
84729;SDS011;74950;56.832;41.398;2024-02-04T10:22:00;3.15;;;1.92;;
84729;SDS011;74950;56.832;41.398;2024-02-04T10:24:26;1.83;;;1.38;;
84729;SDS011;74950;56.832;41.398;2024-02-04T10:26:56;5.50;;;2.72;;
84729;SDS011;74950;56.832;41.398;2024-02-04T10:29:23;7.03;;;2.60;;
84729;SDS011;74950;56.832;41.398;2024-02-04T10:31:53;5.88;;;2.63;;
84729;SDS011;74950;56.832;41.398;2024-02-04T10:34:20;8.40;;;2.97;;
84729;SDS011;74950;56.832;41.398;2024-02-04T10:36:47;8.57;;;2.30;;
84729;SDS011;74950;56.832;41.398;2024-02-04T10:39:13;6.25;;;2.50;;
84729;SDS011;74950;56.832;41.398;2024-02-04T10:41:42;4.40;;;1.90;;
84729;SDS011;74950;56.832;41.398;2024-02-04T10:44:17;7.90;;;3.00;;
84729;SDS011;74950;56.832;41.398;2024-02-04T10:46:47;5.03;;;2.25;;
84729;SDS011;74950;56.832;41.398;2024-02-04T10:49:14;6.38;;;2.50;;
84729;SDS011;74950;56.832;41.398;2024-02-04T10:51:41;7.43;;;2.53;;
84729;SDS011;74950;56.832;41.398;2024-02-04T10:54:08;7.03;;;2.30;;
84729;SDS011;74950;56.832;41.398;2024-02-04T10:56:42;4.85;;;2.97;;
84729;SDS011;74950;56.832;41.398;2024-02-04T11:01:38;3.67;;;1.95;;
84729;SDS011;74950;56.832;41.398;2024-02-04T11:04:05;5.72;;;2.10;;
84729;SDS011;74950;56.832;41.398;2024-02-04T11:06:32;6.63;;;3.25;;
84729;SDS011;74950;56.832;41.398;2024-02-04T11:08:59;6.60;;;2.97;;
84729;SDS011;74950;56.832;41.398;2024-02-04T11:11:26;4.93;;;2.70;;
84729;SDS011;74950;56.832;41.398;2024-02-04T11:13:54;6.53;;;2.97;;
84729;SDS011;74950;56.832;41.398;2024-02-04T11:24:30;6.82;;;3.40;;
84729;SDS011;74950;56.832;41.398;2024-02-04T11:27:00;5.85;;;2.45;;
84729;SDS011;74950;56.832;41.398;2024-02-04T11:29:26;4.53;;;2.58;;
84729;SDS011;74950;56.832;41.398;2024-02-04T11:31:53;10.10;;;3.85;;
84729;SDS011;74950;56.832;41.398;2024-02-04T11:34:19;8.18;;;3.50;;
84729;SDS011;74950;56.832;41.398;2024-02-04T11:36:46;11.10;;;4.50;;
84729;SDS011;74950;56.832;41.398;2024-02-04T11:39:12;6.30;;;3.58;;
84729;SDS011;74950;56.832;41.398;2024-02-04T11:41:44;8.45;;;5.45;;
84729;SDS011;74950;56.832;41.398;2024-02-04T11:44:12;12.90;;;6.32;;
84729;SDS011;74950;56.832;41.398;2024-02-04T11:46:46;10.98;;;6.50;;
84729;SDS011;74950;56.832;41.398;2024-02-04T11:49:16;10.15;;;4.97;;
84729;SDS011;74950;56.832;41.398;2024-02-04T11:51:46;11.23;;;5.80;;
84729;SDS011;74950;56.832;41.398;2024-02-04T11:54:16;11.10;;;5.03;;
84729;SDS011;74950;56.832;41.398;2024-02-04T11:56:45;10.90;;;5.65;;
84729;SDS011;74950;56.832;41.398;2024-02-04T11:59:12;15.57;;;8.15;;
84729;SDS011;74950;56.832;41.398;2024-02-04T12:01:40;17.98;;;9.10;;
84729;SDS011;74950;56.832;41.398;2024-02-04T12:04:27;17.92;;;8.25;;
84729;SDS011;74950;56.832;41.398;2024-02-04T12:06:53;21.45;;;8.13;;
84729;SDS011;74950;56.832;41.398;2024-02-04T12:09:20;13.48;;;6.55;;
84729;SDS011;74950;56.832;41.398;2024-02-04T12:11:49;14.43;;;6.60;;
84729;SDS011;74950;56.832;41.398;2024-02-04T12:14:15;11.20;;;6.03;;
84729;SDS011;74950;56.832;41.398;2024-02-04T12:16:41;16.60;;;7.57;;
84729;SDS011;74950;56.832;41.398;2024-02-04T12:19:08;13.27;;;7.78;;
84729;SDS011;74950;56.832;41.398;2024-02-04T12:21:34;17.45;;;7.97;;
84729;SDS011;74950;56.832;41.398;2024-02-04T12:24:02;15.88;;;7.80;;
84729;SDS011;74950;56.832;41.398;2024-02-04T12:26:28;14.18;;;7.18;;
84729;SDS011;74950;56.832;41.398;2024-02-04T12:28:54;17.15;;;7.75;;
84729;SDS011;74950;56.832;41.398;2024-02-04T12:31:40;13.23;;;5.95;;
84729;SDS011;74950;56.832;41.398;2024-02-04T12:34:07;13.90;;;6.53;;
84729;SDS011;74950;56.832;41.398;2024-02-04T12:36:34;12.00;;;5.18;;
84729;SDS011;74950;56.832;41.398;2024-02-04T12:39:01;12.25;;;6.20;;
84729;SDS011;74950;56.832;41.398;2024-02-04T12:41:29;10.82;;;5.57;;
84729;SDS011;74950;56.832;41.398;2024-02-04T12:43:57;11.52;;;6.25;;
84729;SDS011;74950;56.832;41.398;2024-02-04T12:46:25;12.00;;;5.60;;
84729;SDS011;74950;56.832;41.398;2024-02-04T12:48:53;14.25;;;6.93;;
84729;SDS011;74950;56.832;41.398;2024-02-04T12:51:29;12.50;;;6.78;;
84729;SDS011;74950;56.832;41.398;2024-02-04T12:56:57;11.18;;;5.97;;
84729;SDS011;74950;56.832;41.398;2024-02-04T13:01:59;14.45;;;5.60;;
84729;SDS011;74950;56.832;41.398;2024-02-04T13:04:33;12.85;;;6.10;;
84729;SDS011;74950;56.832;41.398;2024-02-04T13:07:06;8.43;;;4.32;;
84729;SDS011;74950;56.832;41.398;2024-02-04T13:09:33;9.27;;;4.47;;
84729;SDS011;74950;56.832;41.398;2024-02-04T13:12:03;12.38;;;5.65;;
84729;SDS011;74950;56.832;41.398;2024-02-04T13:14:30;15.00;;;6.60;;
84729;SDS011;74950;56.832;41.398;2024-02-04T13:16:57;16.23;;;6.55;;
84729;SDS011;74950;56.832;41.398;2024-02-04T13:19:23;12.27;;;5.40;;
84729;SDS011;74950;56.832;41.398;2024-02-04T13:21:49;9.32;;;5.10;;
84729;SDS011;74950;56.832;41.398;2024-02-04T13:24:15;13.73;;;7.43;;
84729;SDS011;74950;56.832;41.398;2024-02-04T13:26:41;17.20;;;7.20;;
84729;SDS011;74950;56.832;41.398;2024-02-04T13:29:08;16.52;;;7.65;;
84729;SDS011;74950;56.832;41.398;2024-02-04T13:31:53;19.63;;;9.00;;
84729;SDS011;74950;56.832;41.398;2024-02-04T13:34:19;12.98;;;7.32;;
84729;SDS011;74950;56.832;41.398;2024-02-04T13:36:46;14.25;;;7.65;;
84729;SDS011;74950;56.832;41.398;2024-02-04T13:39:12;18.85;;;8.88;;
84729;SDS011;74950;56.832;41.398;2024-02-04T13:41:41;17.80;;;8.43;;
84729;SDS011;74950;56.832;41.398;2024-02-04T13:44:08;15.38;;;8.57;;
84729;SDS011;74950;56.832;41.398;2024-02-04T13:46:34;9.95;;;4.32;;
84729;SDS011;74950;56.832;41.398;2024-02-04T13:49:00;12.20;;;6.03;;
84729;SDS011;74950;56.832;41.398;2024-02-04T13:51:26;17.60;;;7.63;;
84729;SDS011;74950;56.832;41.398;2024-02-04T13:53:52;16.73;;;8.18;;
84729;SDS011;74950;56.832;41.398;2024-02-04T13:56:18;16.15;;;7.32;;
84729;SDS011;74950;56.832;41.398;2024-02-04T13:58:46;10.27;;;5.03;;
84729;SDS011;74950;56.832;41.398;2024-02-04T14:01:12;12.00;;;5.82;;
84729;SDS011;74950;56.832;41.398;2024-02-04T14:03:39;8.25;;;4.55;;
84729;SDS011;74950;56.832;41.398;2024-02-04T14:06:05;14.40;;;7.10;;
84729;SDS011;74950;56.832;41.398;2024-02-04T14:08:32;9.00;;;4.63;;
84729;SDS011;74950;56.832;41.398;2024-02-04T14:10:58;9.27;;;5.15;;
84729;SDS011;74950;56.832;41.398;2024-02-04T14:13:24;15.85;;;6.72;;
84729;SDS011;74950;56.832;41.398;2024-02-04T14:15:50;5.80;;;3.20;;
84729;SDS011;74950;56.832;41.398;2024-02-04T14:18:18;10.70;;;4.47;;
84729;SDS011;74950;56.832;41.398;2024-02-04T14:20:44;11.48;;;5.22;;
84729;SDS011;74950;56.832;41.398;2024-02-04T14:23:10;14.55;;;5.38;;
84729;SDS011;74950;56.832;41.398;2024-02-04T14:25:37;14.35;;;6.07;;
84729;SDS011;74950;56.832;41.398;2024-02-04T14:28:03;8.90;;;5.07;;
84729;SDS011;74950;56.832;41.398;2024-02-04T14:30:30;8.25;;;4.00;;
84729;SDS011;74950;56.832;41.398;2024-02-04T14:32:57;5.95;;;3.08;;
84729;SDS011;74950;56.832;41.398;2024-02-04T14:35:23;10.95;;;4.97;;
84729;SDS011;74950;56.832;41.398;2024-02-04T14:37:49;3.75;;;2.42;;
84729;SDS011;74950;56.832;41.398;2024-02-04T14:40:15;8.68;;;5.07;;
84729;SDS011;74950;56.832;41.398;2024-02-04T14:42:42;6.82;;;4.20;;
84729;SDS011;74950;56.832;41.398;2024-02-04T14:45:08;10.63;;;5.90;;
84729;SDS011;74950;56.832;41.398;2024-02-04T14:47:39;10.27;;;5.45;;
84729;SDS011;74950;56.832;41.398;2024-02-04T14:50:06;9.20;;;4.97;;
84729;SDS011;74950;56.832;41.398;2024-02-04T14:52:32;6.40;;;3.42;;
84729;SDS011;74950;56.832;41.398;2024-02-04T14:54:58;10.25;;;5.45;;
84729;SDS011;74950;56.832;41.398;2024-02-04T14:57:45;10.23;;;5.07;;
84729;SDS011;74950;56.832;41.398;2024-02-04T15:00:12;10.90;;;5.75;;